Time;durP1;ratioP1;P1;durP2;ratioP2;P2;SDS_P1;SDS_P2;PMS_P1;PMS_P2;Temp;Humidity;BMP_temperature;BMP_pressure;BME280_temperature;BME280_humidity;BME280_pressure;Samples;Min_cycle;Max_cycle;Signal;HPM_P1;HPM_P2
2022/06/07 04:20:48;;;;;;;5.60;5.10;;;;;;;16.47;100.00;100160.25;5556683;32;203591;-88
2022/06/07 04:23:53;;;;;;;5.25;4.72;;;;;;;16.54;100.00;100157.94;5546603;32;33449;-88
2022/06/07 04:26:57;;;;;;;4.80;4.40;;;;;;;16.68;100.00;100157.72;5551388;32;33706;-88
2022/06/07 04:30:00;;;;;;;4.75;4.18;;;;;;;16.98;100.00;100156.25;5544864;32;33838;-88
2022/06/07 04:33:05;;;;;;;4.20;3.90;;;;;;;17.28;100.00;100158.41;5538705;32;35206;-88
2022/06/07 04:36:13;;;;;;;4.22;3.65;;;;;;;17.52;100.00;100153.69;5542377;32;33841;-91
2022/06/07 04:39:18;;;;;;;4.10;3.65;;;;;;;17.69;100.00;100148.78;5533748;32;34044;-92
2022/06/07 04:42:22;;;;;;;3.95;3.65;;;;;;;17.92;100.00;100146.81;5523502;32;32861;-88
2022/06/07 04:45:25;;;;;;;4.97;3.80;;;;;;;18.02;100.00;100144.25;5526766;32;32213;-88
2022/06/07 04:48:29;;;;;;;3.97;3.67;;;;;;;18.12;100.00;100144.34;5538295;32;33384;-88
2022/06/07 04:51:35;;;;;;;4.47;3.70;;;;;;;18.18;100.00;100141.13;5538336;32;33527;-88
2022/06/07 04:54:38;;;;;;;3.78;3.47;;;;;;;18.35;100.00;100146.84;5530983;32;33671;-88
2022/06/07 04:57:42;;;;;;;4.68;3.35;;;;;;;18.55;98.38;100155.00;5530871;32;33671;-88
2022/06/07 05:00:45;;;;;;;3.37;3.08;;;;;;;18.84;96.19;100155.16;5526608;32;33584;-88
2022/06/07 05:03:48;;;;;;;4.50;3.17;;;;;;;18.98;95.05;100153.06;5537481;32;32169;-88
2022/06/07 05:06:51;;;;;;;4.53;3.35;;;;;;;19.07;94.20;100149.59;5536981;32;34871;-88
2022/06/07 05:09:54;;;;;;;3.22;3.03;;;;;;;19.17;93.53;100156.84;5531838;32;33977;-88
2022/06/07 05:12:58;;;;;;;3.33;3.03;;;;;;;19.56;92.12;100148.81;5524721;32;33939;-88
2022/06/07 05:16:02;;;;;;;4.35;3.10;;;;;;;20.13;89.06;100152.66;5524899;32;34321;-88
2022/06/07 05:19:06;;;;;;;4.15;2.65;;;;;;;22.16;79.99;100158.19;5541759;32;33947;-88
2022/06/07 05:22:10;;;;;;;3.53;2.60;;;;;;;26.06;65.09;100163.47;5541677;32;34922;-88
2022/06/07 05:25:16;;;;;;;3.50;2.40;;;;;;;28.61;50.91;100157.56;5524282;32;34165;-88
2022/06/07 05:28:19;;;;;;;2.25;2.15;;;;;;;31.55;44.06;100155.22;5524878;32;33748;-88
2022/06/07 05:31:24;;;;;;;4.15;2.10;;;;;;;33.55;38.95;100162.69;5516314;32;33857;-88
2022/06/07 05:34:27;;;;;;;3.10;2.20;;;;;;;33.21;38.81;100157.62;5523504;32;34698;-88
2022/06/07 05:37:34;;;;;;;2.97;2.00;;;;;;;35.21;34.23;100167.28;5521658;32;34332;-89
2022/06/07 05:40:40;;;;;;;3.08;2.15;;;;;;;37.09;31.63;100154.47;5511834;32;34371;-88
2022/06/07 05:43:44;;;;;;;5.15;2.20;;;;;;;37.86;28.99;100162.66;5514454;32;34214;-88
2022/06/07 05:46:48;;;;;;;1.77;1.67;;;;;;;36.42;30.62;100154.41;5530016;32;34873;-88
2022/06/07 05:49:52;;;;;;;2.50;2.15;;;;;;;38.67;27.52;100153.53;5528059;32;33808;-89
2022/06/07 05:52:56;;;;;;;4.45;2.00;;;;;;;36.21;30.91;100159.66;5537142;32;32746;-88
2022/06/07 05:56:11;;;;;;;11.00;2.70;;;;;;;37.90;28.85;100165.72;5529115;32;34955;-89
2022/06/07 05:59:14;;;;;;;2.20;2.00;;;;;;;38.60;26.77;100156.53;5515939;32;33652;-87
2022/06/07 06:02:17;;;;;;;4.50;2.20;;;;;;;38.96;26.92;100147.53;5523347;32;34729;-89
2022/06/07 06:05:20;;;;;;;5.45;2.22;;;;;;;40.62;24.20;100141.13;5523422;32;33634;-90
2022/06/07 06:11:49;;;;;;;2.30;1.85;;;;;;;37.88;27.15;100143.03;5511390;32;32674;-94
2022/06/07 06:14:52;;;;;;;5.40;2.10;;;;;;;39.03;25.20;100145.34;5515463;32;32651;-93
2022/06/07 06:17:57;;;;;;;2.72;2.22;;;;;;;38.40;26.47;100143.38;5515406;32;33954;-92
2022/06/07 06:21:00;;;;;;;4.35;1.80;;;;;;;39.11;25.02;100143.16;5517178;32;33633;-89
2022/06/07 06:24:05;;;;;;;1.80;1.67;;;;;;;39.33;24.91;100145.69;5517882;32;33539;-90
2022/06/07 06:27:08;;;;;;;2.25;2.05;;;;;;;38.02;25.31;100155.31;5523408;32;33988;-89
2022/06/07 06:30:11;;;;;;;2.97;2.10;;;;;;;38.74;25.36;100145.78;5528837;32;34312;-90
2022/06/07 06:33:17;;;;;;;6.62;2.20;;;;;;;39.48;24.01;100142.13;5535710;32;34730;-91
2022/06/07 06:36:23;;;;;;;1.98;1.65;;;;;;;39.31;24.89;100140.41;5530157;32;34399;-90
2022/06/07 06:39:27;;;;;;;3.37;1.80;;;;;;;37.81;26.12;100134.94;5521980;32;34061;-90
2022/06/07 06:42:30;;;;;;;2.58;1.83;;;;;;;35.17;28.49;100135.81;5528802;32;34056;-89
2022/06/07 06:45:33;;;;;;;4.75;1.92;;;;;;;33.72;30.81;100147.19;5524640;32;33965;-89
2022/06/07 06:48:38;;;;;;;2.62;1.90;;;;;;;33.47;32.17;100142.66;5523442;32;32584;-90
2022/06/07 06:51:42;;;;;;;2.45;2.10;;;;;;;32.63;34.02;100135.09;5524704;32;32487;-89
2022/06/07 06:54:46;;;;;;;3.25;2.60;;;;;;;32.98;34.17;100130.91;5522643;32;34275;-90
2022/06/07 06:57:51;;;;;;;4.40;2.40;;;;;;;33.33;33.68;100131.03;5525443;32;33490;-90
2022/06/07 07:01:05;;;;;;;2.35;1.87;;;;;;;33.28;33.68;100128.13;5526240;32;33871;-89
2022/06/07 07:04:17;;;;;;;2.87;2.05;;;;;;;31.77;35.37;100135.66;5525532;32;33513;-89
2022/06/07 07:07:20;;;;;;;2.03;1.90;;;;;;;31.14;36.44;100125.31;5520863;32;34111;-89
2022/06/07 07:10:23;;;;;;;2.62;2.15;;;;;;;30.83;37.21;100121.47;5526549;32;33513;-88
2022/06/07 07:13:26;;;;;;;7.22;2.10;;;;;;;30.24;38.07;100127.72;5530287;32;33613;-89
2022/06/07 07:16:32;;;;;;;2.60;2.15;;;;;;;30.16;39.09;100127.09;5530826;32;33546;-90
2022/06/07 07:19:35;;;;;;;2.17;1.98;;;;;;;30.20;39.45;100122.84;5534005;32;33901;-89
2022/06/07 07:22:41;;;;;;;2.10;2.00;;;;;;;30.53;38.56;100127.44;5528558;32;33371;-89
2022/06/07 07:25:44;;;;;;;2.03;1.92;;;;;;;29.19;39.45;100124.44;5519913;32;35063;-89
2022/06/07 07:28:53;;;;;;;6.28;2.12;;;;;;;29.29;41.21;100125.91;5510868;32;33846;-89
2022/06/07 07:31:56;;;;;;;2.60;2.40;;;;;;;30.30;40.72;100122.41;5510233;32;34496;-88
2022/06/07 07:35:00;;;;;;;2.00;1.90;;;;;;;30.57;38.94;100114.16;5510251;32;33813;-89
2022/06/07 07:38:04;;;;;;;2.03;1.83;;;;;;;30.48;38.87;100113.53;5517511;32;34879;-87
2022/06/07 07:41:32;;;;;;;2.33;1.90;;;;;;;30.26;38.72;100111.06;5523401;32;33668;-89
2022/06/07 07:44:35;;;;;;;3.62;2.03;;;;;;;29.89;39.33;100110.66;5520698;32;34402;-93
2022/06/07 07:47:38;;;;;;;1.75;1.50;;;;;;;29.40;40.06;100105.34;5528585;32;34440;-89
2022/06/07 07:50:42;;;;;;;4.32;1.77;;;;;;;30.23;38.59;100104.13;5534264;32;35094;-89
2022/06/07 07:53:45;;;;;;;2.58;1.92;;;;;;;30.48;38.37;100097.13;5544229;32;34447;-89
2022/06/07 07:56:50;;;;;;;1.70;1.60;;;;;;;30.50;38.09;100100.47;5545674;32;34685;-89
2022/06/07 07:59:52;;;;;;;2.85;1.80;;;;;;;30.62;37.69;100103.41;5536993;32;34685;-87
2022/06/07 08:02:55;;;;;;;2.05;1.87;;;;;;;30.48;40.29;100106.16;5515872;32;34700;-89
2022/06/07 08:05:59;;;;;;;1.85;1.70;;;;;;;30.96;37.68;100093.16;5508228;32;32734;-89
2022/06/07 08:09:05;;;;;;;3.78;1.70;;;;;;;31.46;36.02;100099.84;5509794;32;33588;-88
2022/06/07 08:12:08;;;;;;;2.00;1.70;;;;;;;31.43;35.72;100095.63;5511091;32;34197;-89
2022/06/07 08:15:11;;;;;;;1.40;1.30;;;;;;;31.23;37.38;100090.28;5508287;32;32593;-88
2022/06/07 08:18:14;;;;;;;2.92;1.45;;;;;;;31.72;35.68;100090.56;5511190;32;33562;-89
2022/06/07 08:21:21;;;;;;;2.15;1.50;;;;;;;31.27;36.80;100087.97;5509563;32;33958;-89
2022/06/07 08:24:24;;;;;;;2.55;1.50;;;;;;;32.27;34.77;100085.41;5509441;32;34472;-89
2022/06/07 08:27:27;;;;;;;2.25;1.80;;;;;;;32.83;35.23;100087.34;5509122;32;34072;-89
2022/06/07 08:30:30;;;;;;;14.50;1.80;;;;;;;32.94;34.12;100075.56;5515678;32;34398;-89
2022/06/07 08:40:27;;;;;;;1.40;1.30;;;;;;;33.92;32.08;100082.72;5509280;32;33664;-89
2022/06/07 08:43:30;;;;;;;1.65;1.55;;;;;;;34.16;29.75;100073.66;5511518;32;33837;-89
2022/06/07 08:46:36;;;;;;;1.67;1.58;;;;;;;33.05;31.87;100076.69;5519001;32;32441;-87
2022/06/07 08:49:39;;;;;;;2.25;1.40;;;;;;;33.17;31.49;100069.34;5523825;32;33858;-87
2022/06/07 08:52:42;;;;;;;1.50;1.40;;;;;;;34.13;32.51;100059.31;5525203;32;32535;-87
2022/06/07 08:55:48;;;;;;;1.77;1.35;;;;;;;34.65;30.24;100067.84;5531908;32;33827;-87
2022/06/07 08:58:52;;;;;;;2.08;1.62;;;;;;;33.54;31.79;100059.28;5529836;32;33645;-87
2022/06/07 09:02:18;;;;;;;1.40;1.30;;;;;;;33.82;30.72;100060.47;5523210;32;33841;-88
2022/06/07 09:05:25;;;;;;;3.08;1.52;;;;;;;32.68;32.50;100055.66;5515697;32;35144;-90
2022/06/07 09:08:42;;;;;;;7.28;2.00;;;;;;;32.31;32.90;100050.13;5516648;32;33349;-89
2022/06/07 09:15:19;;;;;;;5.15;1.80;;;;;;;31.17;34.85;100058.28;5523097;32;33605;-88
2022/06/07 09:18:27;;;;;;;1.45;1.33;;;;;;;31.70;34.79;100051.59;5515764;32;33435;-89
2022/06/07 09:21:31;;;;;;;2.07;1.53;;;;;;;32.09;34.08;100040.47;5520454;32;33796;-88
2022/06/07 09:24:42;;;;;;;1.50;1.40;;;;;;;32.87;33.13;100052.84;5511832;32;33977;-88
2022/06/07 09:27:45;;;;;;;2.25;1.40;;;;;;;31.09;34.85;100047.59;5516732;32;33936;-89
2022/06/07 09:30:57;;;;;;;2.12;1.62;;;;;;;30.50;35.79;100037.56;5515529;32;35007;-88
2022/06/07 09:34:05;;;;;;;3.35;1.48;;;;;;;30.26;37.03;100039.94;5518419;32;33724;-88
2022/06/07 09:37:15;;;;;;;1.60;1.50;;;;;;;29.89;37.12;100032.22;5528215;32;33268;-88
2022/06/07 09:40:34;;;;;;;4.97;1.70;;;;;;;29.57;38.10;100024.69;5528463;32;33977;-88
2022/06/07 09:43:42;;;;;;;4.82;1.50;;;;;;;29.94;38.30;100021.50;5516736;32;35063;-89
2022/06/07 09:46:51;;;;;;;1.60;1.50;;;;;;;31.03;35.25;100027.41;5525482;32;33665;-88
2022/06/07 09:50:14;;;;;;;3.33;1.65;;;;;;;31.95;33.95;100027.94;5514389;32;33800;-88
2022/06/07 09:53:17;;;;;;;1.60;1.35;;;;;;;33.10;32.07;100016.41;5515257;32;33165;-89
2022/06/07 09:56:33;;;;;;;1.65;1.55;;;;;;;32.27;32.14;100014.94;5518334;32;35074;-88
2022/06/07 09:59:57;;;;;;;3.80;1.60;;;;;;;32.74;32.03;100021.75;5515416;32;34672;-88
2022/06/07 10:03:23;;;;;;;5.05;1.25;;;;;;;33.58;31.60;100013.75;5521987;32;34041;-88
2022/06/07 10:06:31;;;;;;;3.22;1.45;;;;;;;33.99;29.17;100011.91;5512198;32;33362;-89
2022/06/07 10:09:58;;;;;;;2.00;1.37;;;;;;;34.34;29.40;100001.12;5519909;32;34951;-89
2022/06/07 10:13:23;;;;;;;2.97;1.50;;;;;;;35.16;27.93;100003.75;5516062;32;33226;-88
2022/06/07 10:16:35;;;;;;;3.10;1.50;;;;;;;33.19;30.05;100003.16;5515467;32;33442;-89
2022/06/07 10:19:50;;;;;;;1.87;1.40;;;;;;;32.47;31.43;100000.16;5520477;32;34041;-89
2022/06/07 10:23:05;;;;;;;2.15;1.87;;;;;;;31.35;33.34;100002.75;5521605;32;33505;-92
2022/06/07 10:26:28;;;;;;;1.92;1.40;;;;;;;30.70;34.39;99990.09;5522278;32;32487;-88
2022/06/07 10:30:01;;;;;;;2.90;1.55;;;;;;;30.05;35.17;99991.81;5516545;32;34704;-85
2022/06/07 10:33:35;;;;;;;;;;;;;;;29.30;36.54;99983.69;5530562;32;33683;-85
2022/06/07 10:37:01;;;;;;;2.55;1.60;;;;;;;29.33;37.46;99987.91;5522104;32;34387;-85
2022/06/07 10:40:18;;;;;;;2.80;1.50;;;;;;;28.54;39.80;99990.25;5518579;32;35128;-85
2022/06/07 10:43:29;;;;;;;1.75;1.62;;;;;;;29.24;36.97;99973.62;5513219;32;34529;-86
2022/06/07 10:46:35;;;;;;;1.73;1.62;;;;;;;30.49;35.23;99976.53;5522791;32;34252;-85
2022/06/07 10:50:02;;;;;;;1.60;1.50;;;;;;;31.61;33.38;99967.94;5525710;32;33867;-87
2022/06/07 10:53:14;;;;;;;2.22;1.92;;;;;;;32.61;30.70;99967.88;5522986;32;32569;-87
2022/06/07 10:56:29;;;;;;;6.20;1.70;;;;;;;31.81;32.45;99948.56;5521253;32;33597;-87
2022/06/07 10:59:37;;;;;;;5.78;1.70;;;;;;;30.63;33.09;99944.44;5517727;32;33857;-87
2022/06/07 11:02:47;;;;;;;2.30;1.55;;;;;;;31.17;33.84;99941.34;5524415;32;32485;-87
2022/06/07 11:09:43;;;;;;;1.37;1.25;;;;;;;33.83;29.94;99932.91;5521131;32;33707;-87
2022/06/07 11:12:58;;;;;;;2.62;1.35;;;;;;;33.01;29.22;99933.50;5527159;32;33781;-87
2022/06/07 11:16:27;;;;;;;3.03;1.35;;;;;;;33.49;29.30;99925.28;5518305;32;34211;-86
2022/06/07 11:19:31;;;;;;;;;;;;;;;32.70;30.17;99927.19;5522187;32;34340;-88
2022/06/07 11:22:36;;;;;;;3.30;1.70;;;;;;;32.03;31.39;99923.44;5524674;32;34090;-87
2022/06/07 11:25:57;;;;;;;1.67;1.40;;;;;;;31.66;31.80;99916.03;5527494;32;35064;-90
2022/06/07 11:29:06;;;;;;;;;;;;;;;31.66;32.76;99920.66;5520948;32;33838;-89
2022/06/07 11:32:48;;;;;;;4.32;1.48;;;;;;;31.50;32.98;99916.63;5525275;32;33914;-86
2022/06/07 11:36:23;;;;;;;5.32;1.60;;;;;;;31.65;31.84;99910.75;5514978;32;32888;-86
2022/06/07 11:39:49;;;;;;;2.05;1.50;;;;;;;31.94;30.25;99917.44;5528878;32;32379;-87
2022/06/07 11:42:51;;;;;;;7.93;1.98;;;;;;;31.14;31.49;99906.19;5539000;32;34165;-86
2022/06/07 11:45:54;;;;;;;3.42;1.25;;;;;;;30.79;31.77;99893.00;5526164;32;34773;-87
2022/06/07 11:48:57;;;;;;;5.65;1.48;;;;;;;31.12;32.15;99896.53;5519636;32;33799;-87
2022/06/07 11:52:08;;;;;;;2.40;1.40;;;;;;;31.10;31.88;99890.41;5517404;32;35208;-86
2022/06/07 11:55:18;;;;;;;7.68;1.60;;;;;;;31.35;31.25;99889.56;5524368;32;33825;-87
2022/06/07 11:58:58;;;;;;;1.77;1.48;;;;;;;31.70;30.33;99883.50;5516961;32;34147;-85
2022/06/07 12:02:00;;;;;;;1.50;1.40;;;;;;;31.06;31.00;99879.91;5523606;32;34971;-86
2022/06/07 12:05:24;;;;;;;7.25;1.60;;;;;;;30.63;32.23;99867.81;5527543;32;33919;-88
2022/06/07 12:08:32;;;;;;;1.62;1.40;;;;;;;30.33;33.27;99871.19;5528185;32;34253;-86
2022/06/07 12:11:42;;;;;;;2.83;1.70;;;;;;;30.91;32.57;99857.50;5523893;32;34494;-83
2022/06/07 12:14:49;;;;;;;1.75;1.40;;;;;;;30.99;31.67;99870.94;5531402;32;33969;-85
2022/06/07 12:17:57;;;;;;;1.98;1.30;;;;;;;30.91;30.43;99863.84;5533621;32;33478;-85
2022/06/07 12:21:06;;;;;;;4.22;1.20;;;;;;;30.44;31.36;99857.84;5531537;32;34398;-85
2022/06/07 12:24:15;;;;;;;2.45;1.30;;;;;;;31.12;30.47;99856.25;5523770;32;32909;-84
2022/06/07 12:27:18;;;;;;;6.97;1.70;;;;;;;30.96;30.65;99852.19;5520280;32;34400;-85
2022/06/07 12:30:34;;;;;;;3.20;1.33;;;;;;;31.49;29.43;99849.19;5514307;32;32737;-86
2022/06/07 12:33:36;;;;;;;1.95;1.40;;;;;;;30.78;30.87;99848.34;5517829;32;34487;-86
2022/06/07 12:36:39;;;;;;;2.60;1.40;;;;;;;30.59;31.48;99849.31;5514864;32;34410;-85
2022/06/07 12:39:49;;;;;;;3.42;1.50;;;;;;;30.74;30.76;99859.97;5527517;32;34935;-85
2022/06/07 12:42:51;;;;;;;4.00;1.98;;;;;;;31.20;30.79;99850.50;5520821;32;34339;-87
2022/06/07 12:46:04;;;;;;;4.90;1.92;;;;;;;30.83;32.99;99844.97;5530415;32;35005;-87
2022/06/07 12:49:41;;;;;;;4.30;1.80;;;;;;;31.26;32.79;99840.53;5514259;32;32796;-85
2022/06/07 12:52:50;;;;;;;3.35;1.80;;;;;;;32.00;31.51;99839.72;5510700;32;33640;-86
2022/06/07 12:56:11;;;;;;;10.85;2.05;;;;;;;32.07;30.52;99833.31;5522676;32;34364;-87
2022/06/07 12:59:21;;;;;;;4.53;1.92;;;;;;;31.87;31.31;99842.63;5524584;32;33874;-88
2022/06/07 13:02:33;;;;;;;3.85;2.00;;;;;;;30.64;32.39;99833.06;5522247;32;34194;-86
2022/06/07 13:05:37;;;;;;;3.35;2.10;;;;;;;31.09;31.18;99829.34;5518268;32;35121;-87
2022/06/07 13:08:42;;;;;;;2.25;2.08;;;;;;;30.66;31.33;99822.72;5515769;32;32825;-88
2022/06/07 13:11:44;;;;;;;3.97;2.00;;;;;;;30.48;32.14;99815.31;5512094;32;34067;-88
2022/06/07 13:14:48;;;;;;;2.50;1.92;;;;;;;30.36;31.86;99810.53;5521940;32;33938;-86
2022/06/07 13:18:02;;;;;;;2.55;1.90;;;;;;;30.32;31.86;99819.44;5526662;32;32566;-87
2022/06/07 13:21:22;;;;;;;4.80;2.25;;;;;;;30.32;31.88;99813.97;5519784;32;33551;-88
2022/06/07 13:24:46;;;;;;;2.17;1.80;;;;;;;29.54;32.48;99817.47;5518373;32;34068;-86
2022/06/07 13:28:03;;;;;;;2.40;2.20;;;;;;;29.37;32.93;99808.91;5511917;32;33478;-87
2022/06/07 13:31:30;;;;;;;3.87;2.17;;;;;;;29.89;32.82;99813.53;5521362;32;33909;-87
2022/06/07 13:34:55;;;;;;;2.42;2.22;;;;;;;29.57;33.44;99806.09;5513224;32;33706;-85
2022/06/07 13:38:23;;;;;;;6.10;2.67;;;;;;;29.44;33.81;99806.12;5514678;32;32732;-85
2022/06/07 13:41:28;;;;;;;5.43;2.30;;;;;;;29.80;32.70;99804.75;5523443;32;34184;-87
2022/06/07 13:44:42;;;;;;;4.40;2.72;;;;;;;30.28;31.47;99801.78;5514169;32;34375;-87
2022/06/07 13:48:00;;;;;;;3.42;2.60;;;;;;;30.48;32.59;99796.97;5514203;32;33802;-86
2022/06/07 13:54:25;;;;;;;3.22;2.90;;;;;;;30.76;31.47;99795.72;5520754;32;33826;-89
2022/06/07 13:57:28;;;;;;;3.35;2.90;;;;;;;30.63;31.58;99795.81;5524092;32;33535;-89
2022/06/07 14:11:40;;;;;;;5.53;3.12;;;;;;;30.04;32.37;99791.38;2836986;26;20100;-88
2022/06/07 14:18:28;;;;;;;3.10;2.85;;;;;;;29.84;33.21;99786.03;5549368;26;20107;-89
2022/06/07 14:29:09;;;;;;;3.55;3.25;;;;;;;30.32;33.23;99772.94;1773867;26;20069;-86
2022/06/07 14:32:19;;;;;;;4.97;3.60;;;;;;;30.60;31.95;99769.75;5547263;32;32390;-86
2022/06/07 14:35:26;;;;;;;4.35;3.25;;;;;;;30.81;32.26;99762.19;5549784;32;35234;-88
2022/06/07 14:38:31;;;;;;;3.80;3.50;;;;;;;30.78;31.26;99758.00;5550669;32;33663;-89
2022/06/07 14:41:34;;;;;;;4.87;3.78;;;;;;;30.21;32.74;99760.81;5645224;26;33826;-89
2022/06/07 14:44:40;;;;;;;4.00;3.53;;;;;;;29.76;33.71;99757.03;5554695;31;32550;-89
2022/06/07 14:47:47;;;;;;;4.70;3.60;;;;;;;29.54;33.52;99756.53;5610954;26;34087;-89
2022/06/07 14:54:30;;;;;;;6.10;4.15;;;;;;;29.16;35.22;99745.28;3123111;26;20084;-88
2022/06/07 14:57:35;;;;;;;6.62;3.80;;;;;;;29.05;35.24;99746.81;5604199;26;34101;-88
2022/06/07 15:00:38;;;;;;;5.90;3.70;;;;;;;28.80;35.80;99749.31;5623292;26;34419;-88
